Impacts METAR Board
IDs:

KBOS - Boston/Logan Intl, MA, US

Updated at: 0700 UTC 23 Oct 2018
Potential Impact None Slight Moderate High
Time 22/19Z 22/20Z 22/21Z 22/22Z 22/23Z 23/00Z 23/01Z 23/02Z 23/03Z 23/04Z 23/05Z 23/06Z 23/07Z
Temp53 50 50 49 48 47 47 46 45 44 43 42 43
Dewpt25 28 28 29 30 30 31 31 32 34 32 32 34
Altim30.14 30.15 30.15 30.16 30.17 30.18 30.19 30.20 30.20 30.20 30.19 30.18 30.17
VIS10 10 10 10 10 10 10 10 10 10 10 10 10
CIG-- -- 120 120 -- -- 60 120 70 95 -- -- 90
CoverSCTSCTBKNBKNSCTSCTBKNBKNOVCOVCCLRCLRBKN
FltCatVFRVFRVFRVFRVFRVFRVFRVFRVFRVFRVFRVFRVFR
WX--------------------------
WDir2702602202202202302302202101802102000
WSpd13 11 9 6 8 10 7 9 3 5 5 4 0
WGst-- -- -- -- -- -- -- -- -- -- -- -- --
Raw hourly METARs
KBOS 221854Z 27013KT 10SM SCT050 SCT110 12/M04 A3014 RMK AO2 SLP204 T01171039
KBOS 221954Z 26011KT 10SM SCT055 SCT110 10/M02 A3015 RMK AO2 SLP208 T01001022
KBOS 222054Z 22009KT 10SM SCT055 BKN120 10/M02 A3015 RMK AO2 SLP209 T01001022 53002
KBOS 222154Z 22006KT 10SM FEW050 BKN120 09/M02 A3016 RMK AO2 SLP211 T00941017
KBOS 222254Z 22008KT 10SM SCT110 09/M01 A3017 RMK AO2 SLP216 T00891011
KBOS 222354Z 23010KT 10SM FEW070 SCT110 08/M01 A3018 RMK AO2 SLP220 T00831011 10122 20083 53010
KBOS 230054Z 23007KT 10SM BKN060 BKN120 08/M01 A3019 RMK AO2 SLP223 T00831006
KBOS 230154Z 22009KT 10SM SCT060 BKN120 08/M01 A3020 RMK AO2 SLP225 T00781006
KBOS 230254Z 21003KT 10SM OVC070 07/00 A3020 RMK AO2 SLP226 T00720000 51006
KBOS 230354Z 18005KT 10SM SCT075 OVC095 07/01 A3020 RMK AO2 SLP225 T00670011
KBOS 230454Z 21005KT 10SM CLR 06/00 A3019 RMK AO2 SLP223 T00610000 401220011
KBOS 230554Z 20004KT 10SM CLR 06/00 A3018 RMK AO2 SLP220 T00560000 10089 20050 58006
KBOS 230654Z 00000KT 10SM BKN090 06/01 A3017 RMK AO2 SLP216 T00610011



Page loaded:  07:11 UTC  |   12:11 AM Pacific  |   01:11 AM Mountain  |   02:11 AM Central  |   03:11 AM Eastern

 

ADVISORIES

FORECASTS

FORECASTS

OBSERVATIONS

USER TOOLS

ABOUT US